Time;durP1;ratioP1;P1;durP2;ratioP2;P2;SDS_P1;SDS_P2;PMS_P1;PMS_P2;Temp;Humidity;BMP_temperature;BMP_pressure;BME280_temperature;BME280_humidity;BME280_pressure;Samples;Min_cycle;Max_cycle;Signal;HPM_P1;HPM_P2
2021/11/25 05:00:28;;;;;;;9.25;8.20;;;;;;;3.30;98.18;95301.41;6047788;23;20104;31
2021/11/25 05:02:53;;;;;;;10.27;8.88;;;;;;;3.31;97.78;95295.34;4935795;28;20086;-71
2021/11/25 05:05:18;;;;;;;12.05;8.38;;;;;;;3.35;97.87;95293.34;4933530;29;20481;-72
2021/11/25 05:07:44;;;;;;;8.52;7.72;;;;;;;3.39;97.50;95303.25;4965272;28;20432;-72
2021/11/25 05:10:11;;;;;;;11.32;10.20;;;;;;;3.37;97.58;95299.19;4949459;29;20027;-72
2021/11/25 05:12:37;;;;;;;8.80;8.00;;;;;;;3.40;97.65;95310.00;4940862;28;20082;-72
2021/11/25 05:15:09;;;;;;;8.98;8.18;;;;;;;3.42;97.56;95310.69;4954621;28;20039;-70
2021/11/25 05:17:35;;;;;;;9.55;8.23;;;;;;;3.49;97.99;95308.47;4973436;28;20031;-70
2021/11/25 05:20:01;;;;;;;9.13;8.23;;;;;;;3.47;97.67;95306.00;4952203;28;20061;-71
2021/11/25 05:22:28;;;;;;;9.25;8.45;;;;;;;3.49;97.88;95308.47;4979351;28;20491;-71
2021/11/25 05:24:53;;;;;;;9.60;8.80;;;;;;;3.52;98.10;95309.03;4969130;28;20027;-70
2021/11/25 05:27:19;;;;;;;9.85;8.85;;;;;;;3.57;97.63;95311.22;4952617;28;20018;-70
2021/11/25 05:29:44;;;;;;;10.45;9.15;;;;;;;3.54;97.97;95309.72;4950678;28;20042;-70
2021/11/25 05:32:14;;;;;;;10.82;9.73;;;;;;;3.57;98.22;95308.66;4969554;28;20069;-71
2021/11/25 05:34:39;;;;;;;11.20;9.52;;;;;;;3.63;98.17;95309.00;4951058;28;20031;-70
2021/11/25 05:37:05;;;;;;;11.82;9.50;;;;;;;3.61;97.72;95308.31;4969684;28;20073;-70
2021/11/25 05:39:30;;;;;;;11.10;10.05;;;;;;;3.63;97.48;95303.06;4951283;28;20030;-70
2021/11/25 05:41:56;;;;;;;11.00;10.00;;;;;;;3.59;98.17;95307.66;4968526;28;20096;-70
2021/11/25 05:44:21;;;;;;;11.15;9.85;;;;;;;3.70;97.90;95305.03;4968931;28;20504;-71
2021/11/25 05:46:47;;;;;;;11.95;9.43;;;;;;;3.65;97.38;95302.03;4957183;28;20443;-71
2021/11/25 05:49:12;;;;;;;9.43;8.52;;;;;;;3.66;97.88;95307.97;4988088;28;20022;-71
2021/11/25 05:51:38;;;;;;;9.65;8.82;;;;;;;3.70;97.87;95314.47;4969515;28;20058;-70
2021/11/25 05:54:03;;;;;;;10.63;9.63;;;;;;;3.76;97.85;95308.06;4988602;28;20108;-70
2021/11/25 05:56:30;;;;;;;9.05;8.20;;;;;;;3.74;97.47;95315.84;4987560;28;20027;-71
2021/11/25 05:58:55;;;;;;;11.20;10.15;;;;;;;3.71;97.49;95316.91;4988178;28;20036;-70
2021/11/25 06:01:24;;;;;;;9.15;8.35;;;;;;;3.78;97.30;95313.88;4971416;28;20047;-70
2021/11/25 06:03:53;;;;;;;9.85;8.95;;;;;;;3.79;97.45;95308.63;4950523;28;20035;-70
2021/11/25 06:06:20;;;;;;;9.90;9.05;;;;;;;3.85;97.47;95315.03;4935561;28;20033;-70
2021/11/25 06:08:45;;;;;;;13.40;12.07;;;;;;;3.82;97.47;95305.81;4967328;28;20546;-70
2021/11/25 06:11:11;;;;;;;11.00;10.10;;;;;;;3.98;97.06;95315.69;4936018;28;20050;-70
2021/11/25 06:13:38;;;;;;;11.20;10.18;;;;;;;3.92;97.05;95316.16;4949926;28;20473;-70
2021/11/25 06:16:04;;;;;;;9.55;8.65;;;;;;;3.91;96.55;95310.22;4951588;28;20407;-70
2021/11/25 06:18:29;;;;;;;10.45;9.48;;;;;;;4.00;96.69;95308.69;4950674;28;20146;-70
2021/11/25 06:20:54;;;;;;;13.10;11.80;;;;;;;4.01;96.22;95316.25;4968390;28;20022;-70
2021/11/25 06:23:20;;;;;;;13.75;10.60;;;;;;;4.02;96.37;95315.31;4954756;28;20038;-70
2021/11/25 06:25:46;;;;;;;20.00;13.15;;;;;;;4.01;96.61;95321.38;4948668;28;20391;-70
2021/11/25 06:28:12;;;;;;;10.88;9.95;;;;;;;4.01;95.88;95320.56;4950296;28;20518;-70
2021/11/25 06:30:37;;;;;;;10.80;9.70;;;;;;;4.08;95.70;95314.00;4948213;28;20030;-71
2021/11/25 06:33:02;;;;;;;12.23;10.88;;;;;;;4.13;95.20;95324.69;4969113;28;20042;-70
2021/11/25 06:35:28;;;;;;;11.57;10.45;;;;;;;4.15;94.91;95326.19;4983570;28;20546;-71
2021/11/25 06:37:54;;;;;;;13.23;11.43;;;;;;;4.13;95.30;95329.81;4985984;28;20404;-71
2021/11/25 06:40:25;;;;;;;12.00;10.82;;;;;;;4.30;95.12;95326.75;4987702;28;20026;-71
2021/11/25 06:42:50;;;;;;;10.60;9.63;;;;;;;4.14;95.52;95310.97;4951036;28;20117;-71
2021/11/25 06:45:16;;;;;;;12.25;11.15;;;;;;;4.24;96.10;95317.78;4938600;28;20121;-70
2021/11/25 06:47:43;;;;;;;11.40;10.30;;;;;;;4.29;95.71;95325.09;4970422;28;20030;-70
2021/11/25 06:50:10;;;;;;;12.65;11.38;;;;;;;4.48;95.06;95330.38;4971335;28;20023;-70
2021/11/25 06:52:36;;;;;;;12.52;11.23;;;;;;;4.42;94.98;95328.31;4969739;28;20031;-70
2021/11/25 06:55:03;;;;;;;12.23;10.77;;;;;;;4.52;93.93;95318.94;4971277;28;20029;-71
2021/11/25 06:57:28;;;;;;;11.05;10.02;;;;;;;4.63;93.81;95318.03;4953401;28;20061;-70
2021/11/25 06:59:54;;;;;;;11.57;10.32;;;;;;;4.53;93.85;95317.97;4972871;28;20022;-70
2021/11/25 07:02:19;;;;;;;12.07;10.63;;;;;;;4.69;93.75;95318.34;4986195;28;20044;-70
2021/11/25 07:04:45;;;;;;;12.75;11.45;;;;;;;4.72;93.20;95307.00;4967639;28;20057;-70
2021/11/25 07:07:10;;;;;;;11.23;10.07;;;;;;;4.78;93.36;95315.03;4986567;28;20414;-70
2021/11/25 07:09:36;;;;;;;11.20;10.10;;;;;;;4.80;93.34;95320.03;4967387;28;20126;-73
2021/11/25 07:12:03;;;;;;;10.18;9.27;;;;;;;4.60;93.39;95315.72;4968927;28;20030;-71
2021/11/25 07:14:28;;;;;;;12.38;11.15;;;;;;;4.59;94.11;95325.16;4967715;28;20034;-71
2021/11/25 07:16:54;;;;;;;15.13;12.48;;;;;;;4.64;94.08;95314.53;4985507;28;20538;-69
2021/11/25 07:19:19;;;;;;;15.88;12.82;;;;;;;4.73;93.37;95314.59;4966362;28;20537;-70
2021/11/25 07:21:45;;;;;;;10.35;9.35;;;;;;;4.84;92.43;95311.16;4965692;28;20069;-70
2021/11/25 07:24:11;;;;;;;10.43;9.32;;;;;;;4.74;91.96;95311.09;4952553;28;20427;-70
2021/11/25 07:26:36;;;;;;;12.95;11.30;;;;;;;4.63;92.27;95308.59;4951158;28;20030;-70
2021/11/25 07:29:02;;;;;;;11.32;10.18;;;;;;;4.71;92.63;95310.53;4952324;28;20030;-70
2021/11/25 07:31:30;;;;;;;11.35;10.25;;;;;;;4.74;92.96;95316.22;4983662;28;20062;-70
2021/11/25 07:33:56;;;;;;;10.45;8.88;;;;;;;4.64;92.55;95309.41;4982793;28;20019;-70
2021/11/25 07:36:22;;;;;;;12.98;11.32;;;;;;;4.79;91.75;95308.13;4987273;28;20028;-70
2021/11/25 07:38:48;;;;;;;9.80;8.85;;;;;;;4.66;91.96;95312.66;4967996;28;20455;-70
2021/11/25 07:41:13;;;;;;;9.68;8.98;;;;;;;4.73;92.94;95314.59;4968171;28;20034;-70
2021/11/25 07:43:39;;;;;;;9.63;8.73;;;;;;;4.78;93.14;95315.03;4965238;28;20030;-69
2021/11/25 07:46:04;;;;;;;9.45;8.65;;;;;;;4.93;92.22;95317.28;4943319;28;20042;-70
2021/11/25 07:48:30;;;;;;;10.00;9.10;;;;;;;4.75;93.42;95306.78;4941083;28;20030;-70
2021/11/25 07:50:56;;;;;;;10.50;9.50;;;;;;;4.85;92.38;95306.84;4955787;28;20047;-70
2021/11/25 07:53:21;;;;;;;9.90;9.07;;;;;;;4.69;93.69;95307.28;4954982;28;20113;-70
2021/11/25 07:55:47;;;;;;;9.18;8.35;;;;;;;4.78;93.06;95301.41;4973302;28;20023;-70
2021/11/25 07:58:12;;;;;;;9.38;8.50;;;;;;;4.79;92.91;95305.56;4948739;28;20035;-70
2021/11/25 08:00:38;;;;;;;9.60;8.80;;;;;;;4.82;92.58;95309.66;4950660;28;20050;-70
2021/11/25 08:03:03;;;;;;;9.93;8.93;;;;;;;4.77;92.88;95300.59;4954850;28;20415;-71
2021/11/25 08:05:29;;;;;;;10.30;9.35;;;;;;;4.71;93.05;95300.28;4953216;28;20035;-70
2021/11/25 08:07:56;;;;;;;9.93;8.82;;;;;;;4.59;93.39;95294.38;4936262;28;20034;-69
2021/11/25 08:10:23;;;;;;;11.07;9.90;;;;;;;4.72;93.21;95296.75;4963916;28;20045;-70
2021/11/25 08:12:49;;;;;;;9.88;9.07;;;;;;;4.59;93.06;95296.16;4937758;28;20046;-70
2021/11/25 08:15:14;;;;;;;9.90;8.90;;;;;;;4.60;93.34;95293.47;4970245;28;20026;-72
2021/11/25 08:17:40;;;;;;;12.55;9.43;;;;;;;4.68;93.23;95282.59;4937958;28;20026;-70
2021/11/25 08:20:07;;;;;;;11.73;8.48;;;;;;;4.77;92.36;95284.38;4959806;28;20030;-70
2021/11/25 08:22:32;;;;;;;8.90;8.10;;;;;;;4.87;92.26;95280.13;4934349;28;20058;-70
2021/11/25 08:24:58;;;;;;;8.27;7.47;;;;;;;4.86;92.11;95273.34;4953447;28;20050;-71
2021/11/25 08:27:23;;;;;;;9.45;8.52;;;;;;;4.67;92.24;95271.50;4946961;28;20590;-70
2021/11/25 08:29:49;;;;;;;9.88;9.02;;;;;;;4.75;91.79;95265.75;4972299;28;20032;-70
2021/11/25 08:32:14;;;;;;;10.75;9.40;;;;;;;4.81;91.71;95269.53;4971373;28;20169;-70
2021/11/25 08:34:40;;;;;;;9.57;8.77;;;;;;;4.96;91.36;95269.06;4949617;28;20035;-70
2021/11/25 08:37:06;;;;;;;10.77;8.85;;;;;;;5.00;91.35;95269.63;4962028;28;20032;-70
2021/11/25 08:39:33;;;;;;;8.02;7.28;;;;;;;5.23;89.03;95265.94;4961981;28;20436;-70
2021/11/25 08:41:59;;;;;;;8.30;7.57;;;;;;;5.18;89.77;95270.63;4951238;28;20030;-70
2021/11/25 08:44:24;;;;;;;9.10;8.25;;;;;;;5.30;88.22;95249.03;4967102;28;20026;-70
2021/11/25 08:46:51;;;;;;;8.65;7.85;;;;;;;5.43;86.96;95252.19;4975269;28;20022;-70
2021/11/25 08:49:16;;;;;;;14.20;8.18;;;;;;;5.55;86.60;95251.16;4959494;28;20030;-71
2021/11/25 08:51:42;;;;;;;10.82;8.90;;;;;;;5.31;87.67;95255.81;4980933;28;20019;-70
2021/11/25 08:54:07;;;;;;;9.00;8.15;;;;;;;5.41;87.49;95248.94;4977562;28;20119;-70
2021/11/25 08:56:33;;;;;;;8.85;7.95;;;;;;;5.31;88.35;95254.06;4948261;28;20059;-70
2021/11/25 08:58:58;;;;;;;8.23;7.43;;;;;;;5.34;86.80;95240.16;4957607;28;20869;-70
2021/11/25 09:01:24;;;;;;;9.15;8.25;;;;;;;5.28;87.46;95238.09;4972154;28;20047;-70
2021/11/25 09:03:50;;;;;;;8.90;8.10;;;;;;;5.15;86.22;95230.66;4966372;28;20031;-70
2021/11/25 09:06:16;;;;;;;7.93;7.22;;;;;;;5.27;86.55;95233.91;4978638;28;20617;-70
2021/11/25 09:08:41;;;;;;;9.05;7.40;;;;;;;5.29;86.72;95227.72;4956499;28;20035;-70
2021/11/25 09:11:08;;;;;;;7.57;6.88;;;;;;;5.19;86.95;95238.91;4951793;28;20031;-70
2021/11/25 09:13:34;;;;;;;7.95;7.07;;;;;;;5.10;86.36;95230.25;4956590;28;20027;-70
2021/11/25 09:15:59;;;;;;;7.85;7.15;;;;;;;5.07;86.45;95225.34;4951670;28;20080;-70
2021/11/25 09:18:25;;;;;;;7.38;6.75;;;;;;;5.08;86.54;95226.16;4979996;28;20546;-71
2021/11/25 09:20:50;;;;;;;6.07;5.47;;;;;;;5.10;86.54;95222.53;4941470;28;20440;-70
2021/11/25 09:23:18;;;;;;;6.20;5.70;;;;;;;5.23;86.76;95217.94;4958495;28;20042;-70
2021/11/25 09:25:44;;;;;;;6.45;5.80;;;;;;;5.42;85.39;95218.94;4942722;28;20860;-70
2021/11/25 09:28:12;;;;;;;7.00;6.35;;;;;;;5.27;85.41;95215.94;4960419;28;20118;-70
2021/11/25 09:30:38;;;;;;;8.02;7.32;;;;;;;5.25;84.96;95217.84;4954517;28;20023;-70
2021/11/25 09:33:04;;;;;;;6.65;5.82;;;;;;;5.25;85.58;95203.25;4946061;28;20022;-70
2021/11/25 09:35:29;;;;;;;7.25;6.53;;;;;;;5.26;86.33;95204.06;4964913;28;20559;-70
2021/11/25 09:37:55;;;;;;;7.95;7.20;;;;;;;5.23;86.14;95212.03;4959377;28;20069;-70
2021/11/25 09:40:23;;;;;;;6.70;6.20;;;;;;;5.21;85.76;95211.34;4963766;28;20550;-71
2021/11/25 09:42:50;;;;;;;6.88;6.18;;;;;;;5.23;85.78;95212.03;4935519;28;20038;-70
2021/11/25 09:45:19;;;;;;;6.95;6.30;;;;;;;5.26;85.79;95209.19;4948397;28;20447;-70
2021/11/25 09:47:46;;;;;;;7.07;6.47;;;;;;;5.50;85.49;95193.41;4953049;28;20447;-70
2021/11/25 09:50:11;;;;;;;10.05;8.05;;;;;;;5.35;86.35;95187.03;4938472;28;20066;-71
2021/11/25 09:52:37;;;;;;;6.22;5.72;;;;;;;5.56;86.00;95193.69;4927699;28;20404;-70
2021/11/25 09:55:03;;;;;;;6.97;6.28;;;;;;;5.55;84.90;95202.34;4977129;28;20031;-70
2021/11/25 09:57:29;;;;;;;8.90;7.15;;;;;;;5.48;85.36;95183.28;4949401;28;20085;-70
2021/11/25 09:59:55;;;;;;;13.90;9.38;;;;;;;5.56;85.21;95185.16;4952389;28;20033;-71
2021/11/25 10:02:21;;;;;;;8.27;7.47;;;;;;;5.38;85.04;95181.63;4929751;28;20081;-70
2021/11/25 10:04:46;;;;;;;7.07;6.40;;;;;;;5.58;84.68;95185.84;4952294;28;20043;-71
2021/11/25 10:07:28;;;;;;;6.10;5.60;;;;;;;5.52;84.75;95191.53;4933997;28;20038;-71
2021/11/25 10:09:53;;;;;;;5.20;4.80;;;;;;;5.70;84.84;95182.19;4978118;28;20048;-70
2021/11/25 10:12:32;;;;;;;7.88;4.95;;;;;;;5.58;84.92;95163.56;4966226;28;20496;-70
2021/11/25 10:14:59;;;;;;;5.45;5.03;;;;;;;5.67;84.63;95178.16;4938111;28;20046;-72
2021/11/25 10:17:46;;;;;;;5.30;4.90;;;;;;;5.61;84.94;95170.16;4957530;28;20063;-72
2021/11/25 10:20:15;;;;;;;5.55;5.07;;;;;;;6.07;84.38;95169.50;4949883;28;20042;-71
2021/11/25 10:23:01;;;;;;;7.20;6.55;;;;;;;5.86;84.54;95169.66;4979058;28;20049;-71
2021/11/25 10:25:49;;;;;;;7.35;6.13;;;;;;;5.96;84.41;95161.94;4951286;28;20491;-72
2021/11/25 10:28:25;;;;;;;6.65;6.07;;;;;;;5.89;84.12;95155.72;4938108;28;20482;-71
2021/11/25 10:30:54;;;;;;;7.15;6.40;;;;;;;5.99;83.75;95153.94;4954453;28;20065;-70
2021/11/25 10:33:27;;;;;;;7.03;6.43;;;;;;;6.05;84.59;95148.25;4976529;28;20386;-70
2021/11/25 10:38:39;;;;;;;8.07;7.38;;;;;;;5.73;83.51;95140.81;4949001;28;20038;-70
2021/11/25 10:41:16;;;;;;;9.60;8.57;;;;;;;6.09;83.97;95131.59;4950314;28;20034;-71
2021/11/25 10:43:42;;;;;;;7.65;6.95;;;;;;;6.22;83.44;95127.78;4969077;28;20074;-71
2021/11/25 10:46:07;;;;;;;5.88;5.38;;;;;;;6.24;82.25;95120.72;4929887;28;20085;-71
2021/11/25 10:48:40;;;;;;;5.72;5.22;;;;;;;6.13;82.73;95122.66;4931404;28;20047;-71
2021/11/25 10:51:28;;;;;;;6.05;5.35;;;;;;;6.25;83.11;95116.41;4950051;28;20117;-70
2021/11/25 10:54:09;;;;;;;5.95;5.45;;;;;;;6.39;83.24;95113.34;4964542;28;20076;-71
2021/11/25 10:56:40;;;;;;;5.72;5.28;;;;;;;6.36;83.69;95111.06;4970429;28;20113;-71
2021/11/25 10:59:07;;;;;;;6.15;5.57;;;;;;;6.33;83.21;95107.03;4965873;28;20034;-71
2021/11/25 11:01:41;;;;;;;4.90;4.50;;;;;;;6.44;83.02;95108.63;4946027;28;20554;-71
2021/11/25 11:04:07;;;;;;;5.40;4.95;;;;;;;6.51;83.25;95104.53;4950488;28;20034;-71
2021/11/25 11:06:37;;;;;;;5.05;4.65;;;;;;;6.63;83.22;95095.66;4932729;28;20745;-72
2021/11/25 11:09:05;;;;;;;7.15;5.07;;;;;;;6.74;83.47;95097.25;4948310;28;20031;-71
2021/11/25 11:11:32;;;;;;;5.78;5.38;;;;;;;6.67;83.00;95094.44;4970144;28;20035;-71
2021/11/25 11:16:48;;;;;;;7.15;6.47;;;;;;;6.37;82.67;95097.25;4947272;28;20035;-71
2021/11/25 11:19:15;;;;;;;5.80;5.30;;;;;;;6.33;83.56;95098.50;4927732;28;20114;-71
2021/11/25 11:21:49;;;;;;;5.60;5.18;;;;;;;6.31;83.31;95090.94;4954407;28;20022;-71
2021/11/25 11:24:26;;;;;;;6.38;5.72;;;;;;;6.42;82.87;95082.25;4951797;28;20035;-71
2021/11/25 11:26:57;;;;;;;6.05;5.55;;;;;;;6.29;83.12;95084.31;4950566;28;20027;-71
2021/11/25 11:29:28;;;;;;;6.10;5.57;;;;;;;6.58;82.96;95082.41;4949945;28;20082;-71
2021/11/25 11:31:56;;;;;;;5.68;5.18;;;;;;;6.58;83.69;95076.47;4966489;28;20042;-71
2021/11/25 11:34:22;;;;;;;8.00;4.95;;;;;;;6.70;82.96;95081.28;4941670;28;20034;-71
2021/11/25 11:36:52;;;;;;;6.00;5.50;;;;;;;6.81;82.95;95080.25;4951570;28;20015;-71
2021/11/25 11:39:20;;;;;;;7.53;5.78;;;;;;;6.71;81.99;95076.94;4966019;28;20035;-71
2021/11/25 11:41:48;;;;;;;7.28;6.57;;;;;;;6.35;84.06;95076.03;4937376;28;20042;-71
2021/11/25 11:44:19;;;;;;;6.47;5.93;;;;;;;6.06;85.16;95077.91;4964051;28;20436;-71
2021/11/25 11:46:45;;;;;;;7.75;6.20;;;;;;;5.97;85.57;95071.84;4973816;28;20476;-72
2021/11/25 11:49:12;;;;;;;7.25;6.65;;;;;;;6.02;86.09;95067.09;4960588;28;20022;-71
2021/11/25 11:51:37;;;;;;;6.95;6.30;;;;;;;6.24;85.77;95068.50;4959406;28;20408;-71
2021/11/25 11:54:03;;;;;;;7.55;6.95;;;;;;;5.83;85.91;95024.25;4978607;28;20030;-71
2021/11/25 11:56:43;;;;;;;6.88;6.28;;;;;;;6.22;85.83;95060.13;4950591;28;20027;-71
2021/11/25 11:59:10;;;;;;;6.75;6.25;;;;;;;6.26;85.53;95040.88;4965670;28;20035;-71
2021/11/25 12:01:37;;;;;;;6.50;5.93;;;;;;;6.20;85.74;95062.00;4929144;29;20054;-71
2021/11/25 12:04:08;;;;;;;7.05;6.45;;;;;;;6.04;86.09;95054.88;4962785;28;20031;-71
2021/11/25 12:06:47;;;;;;;7.22;6.63;;;;;;;6.10;86.04;95056.13;4951153;28;20674;-71
2021/11/25 12:09:22;;;;;;;7.03;6.43;;;;;;;6.25;85.80;95052.13;4946257;28;20026;-71
2021/11/25 12:11:56;;;;;;;6.05;5.55;;;;;;;6.23;85.13;95046.28;4956399;28;20058;-71
2021/11/25 12:14:24;;;;;;;6.30;5.70;;;;;;;6.22;84.95;95039.53;4949600;28;20027;-71
2021/11/25 12:16:59;;;;;;;7.00;6.40;;;;;;;6.34;84.54;95033.25;4949530;28;20035;-71
2021/11/25 12:19:27;;;;;;;6.18;5.68;;;;;;;6.39;85.00;95028.47;4966944;28;20027;-71
2021/11/25 12:21:55;;;;;;;5.72;5.22;;;;;;;6.36;85.44;95032.16;4967487;28;20023;-71
2021/11/25 12:24:49;;;;;;;6.47;5.88;;;;;;;6.47;85.39;95022.63;4931200;28;20042;-71
2021/11/25 12:27:32;;;;;;;6.47;5.90;;;;;;;6.47;85.35;95023.44;4948054;28;20050;-71
2021/11/25 12:29:59;;;;;;;7.47;6.78;;;;;;;6.29;86.10;95018.25;4967055;28;20033;-71
2021/11/25 12:32:30;;;;;;;6.18;5.68;;;;;;;6.19;86.20;95020.09;4929852;29;20508;-71
2021/11/25 12:34:58;;;;;;;7.10;6.50;;;;;;;6.19;85.95;95019.25;4956555;28;20050;-71
2021/11/25 12:40:17;;;;;;;8.73;7.93;;;;;;;6.24;86.73;95017.06;4955969;28;21584;-71
2021/11/25 12:42:44;;;;;;;8.35;7.60;;;;;;;6.16;86.76;95019.56;4942610;28;20029;-71
2021/11/25 12:45:31;;;;;;;7.07;6.38;;;;;;;6.24;86.80;95019.63;4945962;28;20065;-71
2021/11/25 12:48:06;;;;;;;8.55;7.68;;;;;;;6.07;87.26;95023.75;4919406;28;20023;-71
2021/11/25 12:50:44;;;;;;;7.35;6.75;;;;;;;6.09;87.20;95011.59;4954480;28;20035;-71
2021/11/25 12:53:22;;;;;;;7.20;6.63;;;;;;;6.01;87.24;95011.47;4927394;28;20404;-72
2021/11/25 12:55:54;;;;;;;7.13;6.63;;;;;;;6.15;87.39;95011.03;4966821;28;20031;-71
2021/11/25 12:58:20;;;;;;;7.80;7.05;;;;;;;6.13;87.17;95000.06;4932822;29;20024;-71
2021/11/25 13:00:46;;;;;;;7.25;6.65;;;;;;;6.11;86.92;95001.16;4972939;28;20035;-71
2021/11/25 13:03:14;;;;;;;7.80;7.10;;;;;;;6.24;87.01;95001.63;4948360;28;20035;-71
2021/11/25 13:05:42;;;;;;;8.07;7.35;;;;;;;6.21;87.27;95012.22;4965071;28;20113;-71
2021/11/25 13:08:09;;;;;;;9.00;8.13;;;;;;;6.04;87.51;95007.81;4936996;28;20027;-72
2021/11/25 13:10:38;;;;;;;7.68;6.97;;;;;;;6.07;87.64;94999.84;4965839;28;20027;-72
2021/11/25 13:13:20;;;;;;;8.18;7.47;;;;;;;5.96;88.13;94994.88;4929783;29;20035;-72
2021/11/25 13:15:59;;;;;;;8.40;7.70;;;;;;;6.14;87.84;94986.25;4961920;28;20042;-71
2021/11/25 13:18:38;;;;;;;7.82;7.13;;;;;;;6.12;87.68;94985.59;4935012;28;20093;-71
2021/11/25 13:21:04;;;;;;;7.72;7.13;;;;;;;6.15;87.54;94985.31;4945147;28;20834;-72
2021/11/25 13:23:30;;;;;;;8.98;8.18;;;;;;;6.01;88.21;94987.53;4965330;28;20034;-72
2021/11/25 13:25:59;;;;;;;10.50;9.60;;;;;;;5.90;89.02;94992.88;4948038;28;20101;-72
2021/11/25 13:28:32;;;;;;;9.27;8.32;;;;;;;6.15;88.69;94987.88;4934880;28;20125;-72
2021/11/25 13:31:18;;;;;;;11.77;8.60;;;;;;;5.94;88.79;94999.34;4933377;28;20027;-71
2021/11/25 13:34:01;;;;;;;10.60;9.55;;;;;;;5.88;89.44;94987.03;4946663;28;20046;-72
2021/11/25 13:36:45;;;;;;;10.85;9.80;;;;;;;5.82;89.95;94986.63;4962756;28;20023;-72
2021/11/25 13:39:24;;;;;;;13.05;11.65;;;;;;;5.71;90.43;94984.25;4940029;28;20177;-72
2021/11/25 13:42:10;;;;;;;13.10;11.80;;;;;;;5.71;90.82;94974.00;4966239;28;20572;-71
2021/11/25 13:44:42;;;;;;;12.27;11.07;;;;;;;5.84;90.65;94979.59;4948296;28;20045;-71
2021/11/25 13:47:21;;;;;;;15.32;12.77;;;;;;;5.75;90.58;94971.91;4948790;28;20023;-71
2021/11/25 13:50:03;;;;;;;16.42;12.05;;;;;;;5.61;91.23;94967.25;4945762;28;20568;-71
2021/11/25 13:52:33;;;;;;;18.73;15.15;;;;;;;5.72;91.18;94969.63;4970105;28;20035;-71
2021/11/25 13:55:00;;;;;;;18.95;15.40;;;;;;;5.83;90.73;94969.47;4933468;28;20035;-71
2021/11/25 13:57:27;;;;;;;14.02;12.63;;;;;;;5.74;91.34;94973.69;4978448;28;20101;-72
2021/11/25 13:59:52;;;;;;;12.10;11.00;;;;;;;5.69;90.55;94957.88;4959228;28;20130;-72
2021/11/25 14:02:26;;;;;;;14.57;13.05;;;;;;;5.74;90.90;94973.69;4938979;28;20536;-71
2021/11/25 14:04:59;;;;;;;11.77;10.30;;;;;;;5.76;90.77;94976.94;4946174;28;20027;-72
2021/11/25 14:07:26;;;;;;;10.80;9.70;;;;;;;5.65;91.13;94973.75;4952424;28;20035;-71
2021/11/25 14:10:05;;;;;;;11.90;10.68;;;;;;;5.59;91.61;94972.50;4959683;28;20053;-71
2021/11/25 14:12:31;;;;;;;12.03;10.83;;;;;;;5.55;92.13;94971.19;4970857;28;20031;-72
2021/11/25 14:14:57;;;;;;;11.05;9.90;;;;;;;5.59;91.57;94977.66;4950759;28;20276;-71
2021/11/25 14:17:23;;;;;;;12.63;10.93;;;;;;;5.51;92.05;94976.75;4956537;28;20058;-71
2021/11/25 14:19:51;;;;;;;24.17;11.57;;;;;;;5.59;92.00;94977.66;4942072;28;20055;-71
2021/11/25 14:22:20;;;;;;;12.63;11.38;;;;;;;5.56;92.02;94977.13;4960665;28;20120;-71
2021/11/25 14:24:51;;;;;;;17.60;12.07;;;;;;;5.50;91.88;94970.78;4934983;28;20097;-71
2021/11/25 14:30:07;;;;;;;12.53;11.27;;;;;;;5.61;92.06;94970.63;4940073;28;20031;-71
2021/11/25 14:32:35;;;;;;;12.63;11.43;;;;;;;5.44;92.68;94975.66;4930799;28;20038;-71
2021/11/25 14:35:01;;;;;;;12.68;11.07;;;;;;;5.33;92.82;94979.19;4962076;28;20039;-71
2021/11/25 14:37:28;;;;;;;12.50;11.30;;;;;;;5.27;93.26;94979.75;4951767;28;20085;-71
2021/11/25 14:39:55;;;;;;;15.65;14.02;;;;;;;5.15;93.64;94975.72;4938233;28;20030;-72
2021/11/25 14:42:24;;;;;;;15.77;12.65;;;;;;;5.19;93.88;94972.75;4972219;28;20035;-71
2021/11/25 14:45:11;;;;;;;16.30;13.48;;;;;;;5.06;94.19;94977.38;4930373;28;20054;-71
2021/11/25 14:47:49;;;;;;;17.88;12.82;;;;;;;4.97;94.69;94977.38;4946741;28;20039;-72
2021/11/25 14:50:37;;;;;;;16.77;14.00;;;;;;;4.90;94.95;94981.44;4930021;28;20031;-71
2021/11/25 14:53:17;;;;;;;15.27;13.52;;;;;;;4.87;95.55;94969.69;4940547;28;20035;-71
2021/11/25 14:56:02;;;;;;;15.27;12.65;;;;;;;4.84;95.62;94979.41;4929364;28;20138;-71
2021/11/25 14:58:31;;;;;;;17.38;12.65;;;;;;;4.79;95.43;94983.19;4962265;28;20034;-71
2021/11/25 15:01:06;;;;;;;15.60;13.65;;;;;;;4.77;95.71;94964.56;4941245;28;20054;-72
2021/11/25 15:03:33;;;;;;;17.73;13.38;;;;;;;4.70;96.04;94973.72;4962631;28;20030;-71
2021/11/25 15:05:59;;;;;;;16.45;14.10;;;;;;;4.69;96.34;94969.53;4930471;28;20976;-71
2021/11/25 15:08:29;;;;;;;16.30;13.68;;;;;;;4.68;96.42;94960.25;4935602;28;20031;-71
2021/11/25 15:10:56;;;;;;;23.13;13.85;;;;;;;4.59;96.75;94957.69;4947475;28;20109;-71
2021/11/25 15:13:26;;;;;;;15.25;13.45;;;;;;;4.60;96.73;94965.22;4917865;29;20523;-71
2021/11/25 15:15:58;;;;;;;15.38;13.70;;;;;;;4.59;97.05;94962.81;4916273;28;20031;-72
2021/11/25 15:18:24;;;;;;;17.02;13.60;;;;;;;4.51;97.51;94963.47;4930237;29;20031;-71
2021/11/25 15:20:51;;;;;;;16.17;13.98;;;;;;;4.44;97.71;94970.06;4942685;28;20027;-72
2021/11/25 15:23:18;;;;;;;18.67;13.18;;;;;;;4.41;97.74;94972.91;4949698;28;20546;-72
2021/11/25 15:25:44;;;;;;;18.63;15.48;;;;;;;4.43;98.11;94970.22;4982004;28;20539;-71
2021/11/25 15:28:11;;;;;;;16.73;13.30;;;;;;;4.46;97.51;94972.50;4938847;29;20172;-71
2021/11/25 15:30:37;;;;;;;19.60;14.05;;;;;;;4.40;97.95;94973.03;4931873;28;20039;-70
2021/11/25 15:33:07;;;;;;;18.25;14.77;;;;;;;4.36;98.16;94975.06;4950562;28;20516;-71
2021/11/25 15:35:41;;;;;;;19.60;15.23;;;;;;;4.30;98.60;94970.47;4927719;28;20043;-71
2021/11/25 15:38:09;;;;;;;15.63;13.98;;;;;;;4.29;98.40;94976.53;4939498;29;20567;-71
2021/11/25 15:40:36;;;;;;;18.00;15.23;;;;;;;4.21;98.90;94964.34;4932370;28;20023;-71
2021/11/25 15:43:03;;;;;;;21.73;16.17;;;;;;;4.14;99.26;94972.72;4932095;28;20100;-71
2021/11/25 15:45:31;;;;;;;15.90;13.63;;;;;;;4.19;99.12;94970.56;4959475;28;20085;-71
2021/11/25 15:47:57;;;;;;;17.30;14.93;;;;;;;4.12;99.51;94979.72;4929816;28;20031;-71
2021/11/25 15:50:22;;;;;;;17.73;15.00;;;;;;;4.09;99.99;94978.22;4945740;28;20034;-71
2021/11/25 15:52:48;;;;;;;20.30;15.70;;;;;;;4.07;99.91;94974.19;4947447;28;20127;-71
2021/11/25 15:55:13;;;;;;;18.60;15.23;;;;;;;4.04;99.98;94967.56;4933488;28;20069;-71
2021/11/25 15:57:39;;;;;;;24.27;18.08;;;;;;;4.03;99.99;94971.06;4966655;28;20166;-71
2021/11/25 16:00:06;;;;;;;22.17;17.80;;;;;;;3.98;100.00;94964.72;4949500;28;20436;-71
2021/11/25 16:02:31;;;;;;;20.02;15.60;;;;;;;4.02;100.00;94963.50;4967087;28;20063;-71
2021/11/25 16:04:57;;;;;;;20.52;18.33;;;;;;;3.93;100.00;94959.97;4932236;28;20042;-71
2021/11/25 16:07:22;;;;;;;19.42;16.25;;;;;;;3.92;100.00;94949.84;4967340;28;20085;-71
2021/11/25 16:09:48;;;;;;;17.88;15.38;;;;;;;3.90;100.00;94944.06;4977406;28;20238;-71
2021/11/25 16:12:15;;;;;;;19.60;15.73;;;;;;;3.89;100.00;94950.94;4964975;28;20031;-71
2021/11/25 16:14:43;;;;;;;20.27;15.63;;;;;;;3.90;100.00;94949.19;4946695;28;20034;-71
2021/11/25 16:17:12;;;;;;;18.73;16.30;;;;;;;3.78;100.00;94939.97;4980313;28;20100;-71
2021/11/25 16:19:39;;;;;;;19.00;14.80;;;;;;;3.85;100.00;94944.47;4979389;28;20044;-71
2021/11/25 16:22:04;;;;;;;14.48;12.23;;;;;;;3.86;100.00;94955.50;4980514;28;20038;-71
2021/11/25 16:24:30;;;;;;;14.02;12.55;;;;;;;3.85;100.00;94941.09;4948723;28;20074;-71
2021/11/25 16:26:55;;;;;;;15.75;13.93;;;;;;;3.91;100.00;94950.81;4948315;28;20035;-71
2021/11/25 16:29:21;;;;;;;15.00;12.95;;;;;;;3.85;100.00;94946.22;4966952;28;20101;-71
2021/11/25 16:31:47;;;;;;;13.18;11.88;;;;;;;3.90;100.00;94944.06;4938763;28;20026;-71
2021/11/25 16:34:14;;;;;;;14.43;12.98;;;;;;;3.93;100.00;94954.84;4937508;28;20042;-71
2021/11/25 16:36:39;;;;;;;12.43;10.68;;;;;;;3.93;100.00;94947.16;4974015;28;20393;-72
2021/11/25 16:39:05;;;;;;;12.68;11.57;;;;;;;4.02;99.52;94945.56;4955403;28;20046;-71
2021/11/25 16:41:30;;;;;;;12.43;11.25;;;;;;;4.00;99.76;94952.59;4929304;28;20050;-71
2021/11/25 16:43:56;;;;;;;12.00;10.85;;;;;;;4.08;99.45;94958.66;4930441;28;20482;-71
2021/11/25 16:46:28;;;;;;;12.02;10.93;;;;;;;4.04;99.38;94954.75;4955759;28;20026;-71
2021/11/25 16:48:53;;;;;;;11.55;10.18;;;;;;;4.06;99.51;94972.56;4949040;28;20054;-71
2021/11/25 16:51:21;;;;;;;11.00;9.90;;;;;;;4.05;99.28;94953.81;4948758;28;20149;-71